createdAt,value
2024-05-09T00:00:29.771Z,9.06
2024-05-09T00:03:20.065Z,9.04
2024-05-09T00:06:12.792Z,9.05
2024-05-09T00:09:01.830Z,9.05
2024-05-09T00:11:51.049Z,8.94
2024-05-09T00:14:40.334Z,8.88
2024-05-09T00:17:29.549Z,8.85
2024-05-09T00:20:24.590Z,8.78
2024-05-09T00:23:24.529Z,8.74
2024-05-09T00:26:13.425Z,8.73
2024-05-09T00:29:02.116Z,8.73
2024-05-09T00:31:50.787Z,8.77
2024-05-09T00:34:40.269Z,8.79
2024-05-09T00:37:28.928Z,8.76
2024-05-09T00:40:30.747Z,8.69
2024-05-09T00:43:27.073Z,8.61
2024-05-09T00:46:15.780Z,8.51
2024-05-09T00:49:05.695Z,8.47
2024-05-09T00:51:54.794Z,8.50
2024-05-09T00:54:43.738Z,8.45
2024-05-09T00:57:35.922Z,8.49
2024-05-09T01:00:35.684Z,8.54
2024-05-09T01:03:29.241Z,8.57
2024-05-09T01:06:18.506Z,8.58
2024-05-09T01:09:07.799Z,8.59
2024-05-09T01:11:56.588Z,8.56
2024-05-09T01:14:48.502Z,8.62
2024-05-09T01:17:37.716Z,8.62
2024-05-09T01:20:37.255Z,8.59
2024-05-09T01:23:34.042Z,8.57
2024-05-09T01:26:23.187Z,8.57
2024-05-09T01:29:11.929Z,8.56
2024-05-09T01:32:01.295Z,8.57
2024-05-09T01:34:50.110Z,8.57
2024-05-09T01:37:40.545Z,8.57
2024-05-09T01:40:37.406Z,8.56
2024-05-09T01:43:28.359Z,8.55
2024-05-09T01:46:19.356Z,8.55
2024-05-09T01:49:08.335Z,8.54
2024-05-09T01:54:53.803Z,8.52
2024-05-09T01:57:45.169Z,8.50
2024-05-09T02:00:39.526Z,8.31
2024-05-09T02:03:31.092Z,8.45
2024-05-09T02:06:20.126Z,8.43
2024-05-09T02:09:09.330Z,8.38
2024-05-09T02:11:58.958Z,8.35
2024-05-09T02:14:51.397Z,8.35
2024-05-09T02:17:40.687Z,8.34
2024-05-09T02:20:34.228Z,8.35
2024-05-09T02:23:26.153Z,8.33
2024-05-09T02:26:14.843Z,8.35
2024-05-09T02:29:03.639Z,8.37
2024-05-09T02:31:55.226Z,8.36
2024-05-09T02:34:44.056Z,8.32
2024-05-09T02:37:33.090Z,8.29
2024-05-09T02:40:25.679Z,8.29
2024-05-09T02:43:22.757Z,8.05
2024-05-09T02:46:09.103Z,8.30
2024-05-09T02:49:00.908Z,8.29
2024-05-09T02:51:47.415Z,8.26
2024-05-09T02:54:36.269Z,8.18
2024-05-09T02:57:22.745Z,8.22
2024-05-09T03:00:18.829Z,8.24
2024-05-09T03:03:11.113Z,8.24
2024-05-09T03:06:04.944Z,8.20
2024-05-09T03:08:51.068Z,8.08
2024-05-09T03:11:40.719Z,7.88
2024-05-09T03:14:27.632Z,7.79
2024-05-09T03:17:16.616Z,7.67
2024-05-09T03:20:06.964Z,7.56
2024-05-09T03:23:00.662Z,7.49
2024-05-09T03:25:46.712Z,7.46
2024-05-09T03:28:35.944Z,7.44
2024-05-09T03:31:22.692Z,7.43
2024-05-09T03:34:11.592Z,7.42
2024-05-09T03:37:00.668Z,7.46
2024-05-09T03:39:52.971Z,7.49
2024-05-09T03:42:42.112Z,7.49
2024-05-09T03:45:31.416Z,7.51
2024-05-09T03:48:18.005Z,7.57
2024-05-09T03:51:07.287Z,7.60
2024-05-09T03:53:53.574Z,7.66
2024-05-09T03:56:47.939Z,7.68
2024-05-09T03:59:34.619Z,7.69
2024-05-09T04:02:24.120Z,7.66
2024-05-09T04:05:10.269Z,7.64
2024-05-09T04:07:58.929Z,7.66
2024-05-09T04:10:46.052Z,7.72
2024-05-09T04:13:38.296Z,7.82
2024-05-09T04:16:25.208Z,7.90
2024-05-09T04:19:14.532Z,7.90
2024-05-09T04:22:01.430Z,8.05
2024-05-09T04:24:51.124Z,8.10
2024-05-09T04:27:37.380Z,8.13
2024-05-09T04:30:37.157Z,8.18
2024-05-09T04:33:29.913Z,8.19
2024-05-09T04:36:16.665Z,8.28
2024-05-09T04:39:05.802Z,8.39
2024-05-09T04:41:57.281Z,8.39
2024-05-09T04:44:43.792Z,8.45
2024-05-09T04:47:35.622Z,8.49
2024-05-09T04:50:30.019Z,8.48
2024-05-09T04:53:25.347Z,8.52
2024-05-09T04:56:12.218Z,8.58
2024-05-09T04:59:00.944Z,8.67
2024-05-09T05:01:48.007Z,8.72
2024-05-09T05:04:40.145Z,8.79
2024-05-09T05:07:27.258Z,8.84
2024-05-09T05:10:21.624Z,8.86
2024-05-09T05:13:18.287Z,8.92
2024-05-09T05:16:09.342Z,9.04
2024-05-09T05:18:56.424Z,9.12
2024-05-09T05:21:48.272Z,9.21
2024-05-09T05:24:34.516Z,9.33
2024-05-09T05:27:23.184Z,9.42
2024-05-09T05:30:17.571Z,9.48
2024-05-09T05:33:14.340Z,9.60
2024-05-09T05:36:00.932Z,9.72
2024-05-09T05:38:53.192Z,9.84
2024-05-09T05:41:38.807Z,9.88
2024-05-09T05:44:28.078Z,10.12
2024-05-09T05:47:14.596Z,10.23
2024-05-09T05:50:07.219Z,10.33
2024-05-09T05:52:57.635Z,10.48
2024-05-09T05:55:50.112Z,10.63
2024-05-09T05:58:36.590Z,10.74
2024-05-09T06:01:26.097Z,10.93
2024-05-09T06:04:13.385Z,11.10
2024-05-09T06:07:04.928Z,11.28
2024-05-09T06:09:50.796Z,11.39
2024-05-09T06:12:43.238Z,11.50
2024-05-09T06:15:30.456Z,11.67
2024-05-09T06:18:19.951Z,11.66
2024-05-09T06:21:06.823Z,11.91
2024-05-09T06:23:55.771Z,11.96
2024-05-09T06:26:42.640Z,12.07
2024-05-09T06:29:34.231Z,12.14
2024-05-09T06:32:21.389Z,12.22
2024-05-09T06:35:10.645Z,12.35
2024-05-09T06:37:56.894Z,12.53
2024-05-09T06:40:46.082Z,12.62
2024-05-09T06:43:32.649Z,12.72
2024-05-09T06:46:25.757Z,12.85
2024-05-09T06:49:15.898Z,12.96
2024-05-09T06:52:01.985Z,13.08
2024-05-09T06:54:52.133Z,13.20
2024-05-09T06:57:40.555Z,13.33
2024-05-09T07:00:38.543Z,13.48
2024-05-09T07:03:32.962Z,13.55
2024-05-09T07:06:20.151Z,13.76
2024-05-09T07:09:08.812Z,13.88
2024-05-09T07:11:54.879Z,14.08
2024-05-09T07:14:43.746Z,14.19
2024-05-09T07:17:30.605Z,14.23
2024-05-09T07:20:31.752Z,14.14
2024-05-09T07:23:24.159Z,13.96
2024-05-09T07:26:10.457Z,13.90
2024-05-09T07:28:59.778Z,14.04
2024-05-09T07:31:46.129Z,14.40
2024-05-09T07:34:35.433Z,14.64
2024-05-09T07:37:24.267Z,14.64
2024-05-09T07:40:24.090Z,14.60
2024-05-09T07:43:18.632Z,14.65
2024-05-09T07:47:04.471Z,14.71
2024-05-09T07:55:00.880Z,14.86
2024-05-09T07:57:50.095Z,15.22
2024-05-09T08:00:36.344Z,15.26
2024-05-09T08:03:25.992Z,15.01
2024-05-09T08:06:15.355Z,14.81
2024-05-09T08:09:08.139Z,14.99
2024-05-09T08:12:02.568Z,15.17
2024-05-09T08:14:53.315Z,15.41
2024-05-09T08:17:40.045Z,15.65
2024-05-09T08:20:33.505Z,15.55
2024-05-09T08:23:21.441Z,15.61
2024-05-09T08:26:10.403Z,15.65
2024-05-09T08:28:59.951Z,15.48
2024-05-09T08:31:48.663Z,15.63
2024-05-09T08:34:35.674Z,15.84
2024-05-09T08:37:29.434Z,16.04
2024-05-09T08:40:27.304Z,16.29
2024-05-09T08:43:23.816Z,16.52
2024-05-09T08:46:13.748Z,16.39
2024-05-09T08:49:04.236Z,16.64
2024-05-09T08:51:51.052Z,16.28
2024-05-09T08:54:40.259Z,17.16
2024-05-09T08:57:27.218Z,17.18
2024-05-09T09:00:21.744Z,17.34
2024-05-09T09:03:19.963Z,17.47
2024-05-09T09:06:10.758Z,17.40
2024-05-09T09:08:58.011Z,17.42
2024-05-09T09:11:50.247Z,17.03
2024-05-09T09:14:36.445Z,16.79
2024-05-09T09:17:27.087Z,16.62
2024-05-09T09:20:23.019Z,16.63
2024-05-09T09:23:18.163Z,16.50
2024-05-09T09:26:08.088Z,16.69
2024-05-09T09:29:00.593Z,16.78
2024-05-09T09:31:49.413Z,16.72
2024-05-09T09:34:36.061Z,16.72
2024-05-09T09:37:32.359Z,16.76
2024-05-09T09:40:22.444Z,16.99
2024-05-09T09:43:18.129Z,16.93
2024-05-09T09:46:08.697Z,16.75
2024-05-09T09:48:59.854Z,16.71
2024-05-09T09:51:49.546Z,17.02
2024-05-09T09:54:41.624Z,17.65
2024-05-09T09:57:30.414Z,17.90
2024-05-09T10:00:26.833Z,17.89
2024-05-09T10:03:17.883Z,17.77
2024-05-09T10:06:07.644Z,17.76
2024-05-09T10:08:54.804Z,17.82
2024-05-09T10:11:51.801Z,18.20
2024-05-09T10:14:46.499Z,18.37
2024-05-09T10:17:35.570Z,18.91
2024-05-09T10:20:27.668Z,19.30
2024-05-09T10:23:27.835Z,19.65
2024-05-09T10:26:14.258Z,19.47
2024-05-09T10:29:14.245Z,19.29
2024-05-09T10:32:00.511Z,19.19
2024-05-09T10:35:03.216Z,19.10
2024-05-09T10:37:51.387Z,18.84
2024-05-09T10:40:41.516Z,18.46
2024-05-09T10:43:28.845Z,19.11
2024-05-09T10:46:21.722Z,19.33
2024-05-09T10:49:08.714Z,19.63
2024-05-09T10:51:58.724Z,20.15
2024-05-09T10:54:45.226Z,20.37
2024-05-09T10:57:45.506Z,20.38
2024-05-09T11:00:36.042Z,19.79
2024-05-09T11:03:29.502Z,19.90
2024-05-09T11:06:18.093Z,19.78
2024-05-09T11:09:07.227Z,19.35
2024-05-09T11:11:53.991Z,19.43
2024-05-09T11:14:43.870Z,19.51
2024-05-09T11:17:37.739Z,19.70
2024-05-09T11:20:37.807Z,20.04
2024-05-09T11:23:27.068Z,20.38
2024-05-09T11:26:19.591Z,20.75
2024-05-09T11:29:06.024Z,21.15
2024-05-09T11:31:54.845Z,21.10
2024-05-09T11:34:42.683Z,21.29
2024-05-09T11:37:37.160Z,20.97
2024-05-09T11:40:32.373Z,20.61
2024-05-09T11:43:21.404Z,20.29
2024-05-09T11:46:13.935Z,20.07
2024-05-09T11:49:00.566Z,19.97
2024-05-09T11:51:50.117Z,19.83
2024-05-09T11:54:39.392Z,19.88
2024-05-09T11:57:29.668Z,20.06
2024-05-09T12:00:24.575Z,20.09
2024-05-09T12:03:20.964Z,19.95
2024-05-09T12:06:10.412Z,19.54
2024-05-09T12:08:59.072Z,19.92
2024-05-09T12:11:48.087Z,20.46
2024-05-09T12:14:37.464Z,20.93
2024-05-09T12:17:24.257Z,21.40
2024-05-09T12:20:21.134Z,21.88
2024-05-09T12:23:11.776Z,21.99
2024-05-09T12:26:01.321Z,22.01
2024-05-09T12:28:51.752Z,21.64
2024-05-09T12:31:41.384Z,21.30
2024-05-09T12:34:28.106Z,20.63
2024-05-09T12:37:16.912Z,20.15
2024-05-09T12:40:12.719Z,20.33
2024-05-09T12:43:08.227Z,20.63
2024-05-09T12:45:58.209Z,21.09
2024-05-09T12:48:47.373Z,21.33
2024-05-09T12:51:34.778Z,21.62
2024-05-09T12:54:24.446Z,21.59
2024-05-09T12:57:11.354Z,21.58
2024-05-09T13:00:00.680Z,20.98
2024-05-09T13:02:50.209Z,20.88
2024-05-09T13:05:42.523Z,20.98
2024-05-09T13:08:29.643Z,21.05
2024-05-09T13:11:18.594Z,20.80
2024-05-09T13:14:04.721Z,20.68
2024-05-09T13:16:53.430Z,20.45
2024-05-09T13:19:43.150Z,20.36
2024-05-09T13:22:31.898Z,20.05
2024-05-09T13:25:18.571Z,19.75
2024-05-09T13:28:08.616Z,19.56
2024-05-09T13:30:55.288Z,19.86
2024-05-09T13:33:44.776Z,20.30
2024-05-09T13:36:34.901Z,20.85
2024-05-09T13:39:24.195Z,21.08
2024-05-09T13:42:10.826Z,21.38
2024-05-09T13:44:59.688Z,21.85
2024-05-09T13:47:46.068Z,21.86
2024-05-09T13:50:36.817Z,21.89
2024-05-09T13:53:28.850Z,21.86
2024-05-09T13:56:15.054Z,21.83
2024-05-09T13:59:04.423Z,22.11
2024-05-09T14:01:51.129Z,22.51
2024-05-09T14:04:41.074Z,22.60
2024-05-09T14:07:27.871Z,22.52
2024-05-09T14:10:26.012Z,22.20
2024-05-09T14:13:20.265Z,21.73
2024-05-09T14:16:07.433Z,21.40
2024-05-09T14:18:57.134Z,20.97
2024-05-09T14:21:49.881Z,20.74
2024-05-09T14:24:38.103Z,21.07
2024-05-09T14:27:30.026Z,21.09
2024-05-09T14:30:25.802Z,20.70
2024-05-09T14:33:25.637Z,20.42
2024-05-09T14:36:12.929Z,20.24
2024-05-09T14:39:02.409Z,20.01
2024-05-09T14:41:58.255Z,19.78
2024-05-09T14:44:49.985Z,19.67
2024-05-09T14:47:36.437Z,19.68
2024-05-09T14:50:34.661Z,19.62
2024-05-09T14:53:26.819Z,19.61
2024-05-09T14:56:16.318Z,19.92
2024-05-09T14:59:03.697Z,20.44
2024-05-09T15:01:55.802Z,20.73
2024-05-09T15:04:42.823Z,21.11
2024-05-09T15:07:32.935Z,21.32
2024-05-09T15:10:26.926Z,21.51
2024-05-09T15:13:24.169Z,21.50
2024-05-09T15:16:12.958Z,21.63
2024-05-09T15:19:02.748Z,21.54
2024-05-09T15:21:52.382Z,21.20
2024-05-09T15:24:41.635Z,20.76
2024-05-09T15:27:31.041Z,20.61
2024-05-09T15:30:20.838Z,20.73
2024-05-09T15:33:13.468Z,21.00
2024-05-09T15:36:02.736Z,21.11
2024-05-09T15:38:52.639Z,21.26
2024-05-09T15:41:39.207Z,21.14
2024-05-09T15:44:28.969Z,21.14
2024-05-09T15:47:15.240Z,21.14
2024-05-09T15:50:07.762Z,21.01
2024-05-09T15:52:59.046Z,20.79
2024-05-09T15:55:48.956Z,20.50
2024-05-09T15:58:35.097Z,20.32
2024-05-09T16:01:24.434Z,20.22
2024-05-09T16:04:11.847Z,20.09
2024-05-09T16:07:01.548Z,20.19
2024-05-09T16:09:50.927Z,19.99
2024-05-09T16:12:40.001Z,19.91
2024-05-09T16:15:26.709Z,19.83
2024-05-09T16:18:15.652Z,19.69
2024-05-09T16:21:02.522Z,19.58
2024-05-09T16:23:51.934Z,19.58
2024-05-09T16:26:41.430Z,19.34
2024-05-09T16:29:30.669Z,19.13
2024-05-09T16:32:17.923Z,18.99
2024-05-09T16:35:07.570Z,18.84
2024-05-09T16:37:54.438Z,18.57
2024-05-09T16:40:43.783Z,18.48
2024-05-09T16:43:33.543Z,18.34
2024-05-09T16:46:23.370Z,18.22
2024-05-09T16:49:11.322Z,18.14
2024-05-09T16:52:00.496Z,18.04
2024-05-09T16:54:47.396Z,17.97
2024-05-09T16:57:37.241Z,17.85
2024-05-09T17:00:36.602Z,17.70
2024-05-09T17:03:30.976Z,17.55
2024-05-09T17:06:17.627Z,17.42
2024-05-09T17:09:11.645Z,17.38
2024-05-09T17:12:04.262Z,17.30
2024-05-09T17:14:53.785Z,17.22
2024-05-09T17:17:45.855Z,17.17
2024-05-09T17:20:37.015Z,17.11
2024-05-09T17:23:23.864Z,17.06
2024-05-09T17:26:13.016Z,16.98
2024-05-09T17:28:59.159Z,16.80
2024-05-09T17:31:48.811Z,16.47
2024-05-09T17:34:37.423Z,16.48
2024-05-09T17:37:27.338Z,16.34
2024-05-09T17:40:16.979Z,16.14
2024-05-09T17:43:08.210Z,15.94
2024-05-09T17:45:56.458Z,15.85
2024-05-09T17:48:45.701Z,15.82
2024-05-09T17:51:37.796Z,15.77
2024-05-09T17:54:24.787Z,15.69
2024-05-09T17:57:13.748Z,15.11
2024-05-09T18:00:00.177Z,15.48
2024-05-09T18:02:49.224Z,15.30
2024-05-09T18:05:37.162Z,15.17
2024-05-09T18:08:29.555Z,15.05
2024-05-09T18:11:16.343Z,14.84
2024-05-09T18:14:05.458Z,14.87
2024-05-09T18:16:51.560Z,14.75
2024-05-09T18:19:40.548Z,14.61
2024-05-09T18:22:27.373Z,14.55
2024-05-09T18:25:18.985Z,14.42
2024-05-09T18:28:05.995Z,14.28
2024-05-09T18:30:55.307Z,14.16
2024-05-09T18:33:42.061Z,14.03
2024-05-09T18:36:31.014Z,13.92
2024-05-09T18:39:17.551Z,13.88
2024-05-09T18:42:09.720Z,13.81
2024-05-09T18:44:55.984Z,13.75
2024-05-09T18:47:45.134Z,13.69
2024-05-09T18:50:36.063Z,13.61
2024-05-09T18:53:28.469Z,13.56
2024-05-09T18:56:14.950Z,13.51
2024-05-09T18:59:06.071Z,13.43
2024-05-09T19:01:52.844Z,13.38
2024-05-09T19:04:41.908Z,13.33
2024-05-09T19:07:29.302Z,13.25
2024-05-09T19:10:22.882Z,13.21
2024-05-09T19:13:14.071Z,13.16
2024-05-09T19:16:06.667Z,13.17
2024-05-09T19:18:54.226Z,13.10
2024-05-09T19:21:43.227Z,13.03
2024-05-09T19:24:30.257Z,12.96
2024-05-09T19:27:19.371Z,12.96
2024-05-09T19:30:14.263Z,12.89
2024-05-09T19:33:19.041Z,12.84
2024-05-09T19:36:06.191Z,12.79
2024-05-09T19:38:55.674Z,12.71
2024-05-09T19:41:42.511Z,12.65
2024-05-09T19:44:32.318Z,12.59
2024-05-09T19:47:18.698Z,12.53
2024-05-09T19:50:16.258Z,12.51
2024-05-09T19:53:10.090Z,12.42
2024-05-09T19:56:02.035Z,12.33
2024-05-09T19:58:51.718Z,12.32
2024-05-09T20:01:38.260Z,12.26
2024-05-09T20:04:27.979Z,12.18
2024-05-09T20:07:17.430Z,12.13
2024-05-09T20:10:16.165Z,12.09
2024-05-09T20:13:08.344Z,12.04
2024-05-09T20:15:57.866Z,12.01
2024-05-09T20:18:47.768Z,11.92
2024-05-09T20:21:33.936Z,11.85
2024-05-09T20:24:26.220Z,11.83
2024-05-09T20:27:12.542Z,11.80
2024-05-09T20:30:03.086Z,11.77
2024-05-09T20:32:52.224Z,11.67
2024-05-09T20:35:41.050Z,11.57
2024-05-09T20:38:27.432Z,11.55
2024-05-09T20:41:19.338Z,11.51
2024-05-09T20:44:06.413Z,11.47
2024-05-09T20:46:55.023Z,11.37
2024-05-09T20:49:41.316Z,11.33
2024-05-09T20:52:31.324Z,11.29
2024-05-09T20:55:18.224Z,11.25
2024-05-09T20:58:11.280Z,11.26
2024-05-09T21:01:00.369Z,11.25
2024-05-09T21:03:48.329Z,11.24
2024-05-09T21:06:37.366Z,11.22
2024-05-09T21:09:26.154Z,11.16
2024-05-09T21:12:15.525Z,11.10
2024-05-09T21:15:05.041Z,11.02
2024-05-09T21:17:54.096Z,10.96
2024-05-09T21:20:40.931Z,10.90
2024-05-09T21:23:29.683Z,10.92
2024-05-09T21:26:17.402Z,10.78
2024-05-09T21:29:06.165Z,10.89
2024-05-09T21:31:55.236Z,10.83
2024-05-09T21:34:44.496Z,10.78
2024-05-09T21:37:31.353Z,10.74
2024-05-09T21:40:30.621Z,10.69
2024-05-09T21:43:20.005Z,10.64
2024-05-09T21:46:10.415Z,10.50
2024-05-09T21:48:59.402Z,10.51
2024-05-09T21:51:48.083Z,10.47
2024-05-09T21:54:33.951Z,10.41
2024-05-09T21:57:23.148Z,10.41
2024-05-09T22:00:27.926Z,10.36
2024-05-09T22:03:24.105Z,10.22
2024-05-09T22:06:13.083Z,10.08
2024-05-09T22:09:05.559Z,10.08
2024-05-09T22:11:52.956Z,10.05
2024-05-09T22:14:42.771Z,10.09
2024-05-09T22:17:28.580Z,10.06
2024-05-09T22:20:25.743Z,10.03
2024-05-09T22:23:22.608Z,9.98
2024-05-09T22:26:12.077Z,9.93
2024-05-09T22:28:58.161Z,9.91
2024-05-09T22:31:47.356Z,9.88
2024-05-09T22:34:33.767Z,9.87
2024-05-09T22:37:22.484Z,9.74
2024-05-09T22:40:15.125Z,9.83
2024-05-09T22:43:09.543Z,9.84
2024-05-09T22:45:56.218Z,9.85
2024-05-09T22:48:45.102Z,9.85
2024-05-09T22:51:31.553Z,9.83
2024-05-09T22:54:21.234Z,9.83
2024-05-09T22:57:10.091Z,9.73
2024-05-09T22:59:59.457Z,9.64
2024-05-09T23:02:45.617Z,9.57
2024-05-09T23:05:34.964Z,9.54
2024-05-09T23:08:21.246Z,9.55
2024-05-09T23:11:10.534Z,9.51
2024-05-09T23:13:59.549Z,9.51
2024-05-09T23:16:49.020Z,9.55
2024-05-09T23:19:35.894Z,9.56
2024-05-09T23:22:25.043Z,9.52
2024-05-09T23:25:11.385Z,9.47
2024-05-09T23:28:13.689Z,9.45
2024-05-09T23:31:05.459Z,9.47
2024-05-09T23:33:52.185Z,9.46
2024-05-09T23:36:41.064Z,9.46
2024-05-09T23:39:27.820Z,9.39
2024-05-09T23:42:17.474Z,9.38
2024-05-09T23:45:03.540Z,9.36
2024-05-09T23:47:56.427Z,9.24
2024-05-09T23:50:42.375Z,9.25
2024-05-09T23:53:31.005Z,9.26
2024-05-09T23:56:21.413Z,9.12
2024-05-09T23:59:10.366Z,9.20
